Aktualna pogoda na lotniskach (dane METAR)

 

EPGD - Gdansk/Rebiechow, Poland
Distance from station: ENE 44km
Updated: Fri, 20-Oct-2017 14:30 CEST
Mist, Mostly cloudy
Mist, Mostly cloudy
 Wind from SE
Wiatr: SE 15 km/h
Temperatura: 12°C
Punkt Rosy: 11°C
Wilgotność: 94%
Ciśnienie: 1016 hPa
Ogólnie: Mist
Zachmurzenie: Mostly Cloudy
Widzialność: 5 km
Szczegóły zachm.: Mostly Cloudy 152 m
2017/10/20 12:30 EPGD 201230Z 14008KT 5000 BR BKN005 12/11 Q1016
EPSC - Szczecin/Golenio, Poland
Distance from station: WSW 205km
Updated: Fri, 20-Oct-2017 14:30 CEST
Clear
Clear
 Wind from SSE
Wiatr: SSE 17 km/h
Temperatura: 15°C
Punkt Rosy: 11°C
Wilgotność: 77%
Ciśnienie: 1013 hPa
Ogólnie: Clear
Widzialność: greater than 10 km
2017/10/20 12:30 EPSC 201230Z 15009KT CAVOK 15/11 Q1013
 
EPPO - Poznan/Lawica, Poland
Distance from station: SSW 210km
Updated: Fri, 20-Oct-2017 14:30 CEST
Partly Cloudy
Partly Cloudy
 Wind from SE
Wiatr: SE 17 km/h
Temperatura: 17°C
Punkt Rosy: 12°C
Wilgotność: 73%
Ciśnienie: 1015 hPa
Zachmurzenie: Partly Cloudy
Widzialność: 6 km
2017/10/20 12:30 EPPO 201230Z 14009KT 6000 NSC 17/12 Q1015
EPLL - Lodz/Lublinek, Poland
Distance from station: SSE 296km
Updated: Fri, 20-Oct-2017 14:30 CEST
Mist, Overcast
Mist, Overcast
 Wind from SE
Wiatr: SE 7 km/h
Temperatura: 12°C
Punkt Rosy: 11°C
Wilgotność: 94%
Ciśnienie: 1017 hPa
Ogólnie: Mist
Zachmurzenie: Overcast
Widzialność: 3 km
Szczegóły zachm.: Overcast 91 m
2017/10/20 12:30 EPLL 201230Z 13004KT 080V190 3000 BR OVC003 12/11 Q1017
 
EPWA - Warsaw/Okecie, Poland
Distance from station: SE 307km
Updated: Fri, 20-Oct-2017 14:30 CEST
Mostly Cloudy
Mostly Cloudy
 Wind from SSW
Wiatr: SSW 13 km/h
Temperatura: 15°C
Punkt Rosy: 12°C
Wilgotność: 82%
Ciśnienie: 1018 hPa
Zachmurzenie: Mostly Cloudy
Widzialność: 8 km
Szczegóły zachm.: Mostly Cloudy 549 m
2017/10/20 12:30 EPWA 201230Z 20007KT 170V240 8000 BKN018 15/12 Q1018 NOSIG
EPWR - Wroclaw/Strachow, Poland
Distance from station: S 352km
Updated: Fri, 20-Oct-2017 14:30 CEST
Clear
Clear
 Wind from SE
Wiatr: SE 19 km/h
Temperatura: 17°C
Punkt Rosy: 12°C
Wilgotność: 73%
Ciśnienie: 1015 hPa
Ogólnie: Clear
Widzialność: greater than 10 km
2017/10/20 12:30 EPWR 201230Z 14010KT CAVOK 17/12 Q1015

Metar display script from Saratoga-Weather.org